createdAt,value
2023-04-18T00:00:04.052Z,8.30
2023-04-18T00:01:04.028Z,7.70
2023-04-18T00:02:04.128Z,7.90
2023-04-18T00:03:04.785Z,7.50
2023-04-18T00:04:04.265Z,7.10
2023-04-18T00:05:04.100Z,7.20
2023-04-18T00:06:03.980Z,7.80
2023-04-18T00:07:03.965Z,8.10
2023-04-18T00:08:03.959Z,7.50
2023-04-18T00:09:03.982Z,7.70
2023-04-18T00:10:03.954Z,7.90
2023-04-18T00:11:03.912Z,7.40
2023-04-18T00:12:03.976Z,7.40
2023-04-18T00:13:03.941Z,7.20
2023-04-18T00:14:03.888Z,7.30
2023-04-18T00:15:03.871Z,7.60
2023-04-18T00:16:03.870Z,7.50
2023-04-18T00:17:03.873Z,7.20
2023-04-18T00:18:04.006Z,7.80
2023-04-18T00:19:03.824Z,8.10
2023-04-18T00:20:03.820Z,7.70
2023-04-18T00:21:03.871Z,7.40
2023-04-18T00:22:03.792Z,7.30
2023-04-18T00:23:03.772Z,7.60
2023-04-18T00:24:03.781Z,7.70
2023-04-18T00:25:03.762Z,7.80
2023-04-18T00:26:03.757Z,7.10
2023-04-18T00:27:03.797Z,7.40
2023-04-18T00:28:03.734Z,7.90
2023-04-18T00:29:03.722Z,7.50
2023-04-18T00:30:03.840Z,7.30
2023-04-18T00:31:03.780Z,7.80
2023-04-18T00:32:03.720Z,7.50
2023-04-18T00:33:03.724Z,7.60
2023-04-18T00:34:03.669Z,7.90
2023-04-18T00:35:03.667Z,8.00
2023-04-18T00:36:03.714Z,8.10
2023-04-18T00:37:03.640Z,7.50
2023-04-18T00:38:03.786Z,7.40
2023-04-18T00:39:03.656Z,7.20
2023-04-18T00:40:03.602Z,7.70
2023-04-18T00:41:03.619Z,7.40
2023-04-18T00:42:03.585Z,7.40
2023-04-18T00:43:03.581Z,6.70
2023-04-18T00:44:03.563Z,6.80
2023-04-18T00:45:03.553Z,7.30
2023-04-18T00:46:03.577Z,7.40
2023-04-18T00:47:03.606Z,7.00
2023-04-18T00:48:03.549Z,7.50
2023-04-18T00:49:03.518Z,7.10
2023-04-18T00:50:03.488Z,7.10
2023-04-18T00:51:03.487Z,7.10
2023-04-18T00:52:03.492Z,6.70
2023-04-18T00:53:03.489Z,7.50
2023-04-18T00:54:03.450Z,7.00
2023-04-18T00:55:03.440Z,7.20
2023-04-18T00:56:03.434Z,6.40
2023-04-18T00:57:03.424Z,7.00
2023-04-18T00:58:03.408Z,7.00
2023-04-18T00:59:03.443Z,6.80
2023-04-18T01:00:03.380Z,6.80
2023-04-18T01:01:03.404Z,7.10
2023-04-18T01:02:03.403Z,7.20
2023-04-18T01:03:03.622Z,6.70
2023-04-18T01:04:03.419Z,6.80
2023-04-18T01:05:03.371Z,6.80
2023-04-18T01:06:03.365Z,6.20
2023-04-18T01:07:03.402Z,7.30
2023-04-18T01:08:03.297Z,7.00
2023-04-18T01:09:03.333Z,6.90
2023-04-18T01:10:03.278Z,6.80
2023-04-18T01:11:03.270Z,6.90
2023-04-18T01:12:03.262Z,6.60
2023-04-18T01:13:03.248Z,7.30
2023-04-18T01:14:03.249Z,6.70
2023-04-18T01:15:03.253Z,6.20
2023-04-18T01:16:03.260Z,6.80
2023-04-18T01:17:03.281Z,7.10
2023-04-18T01:18:03.276Z,7.20
2023-04-18T01:19:03.175Z,6.50
2023-04-18T01:20:03.166Z,6.70
2023-04-18T01:21:03.248Z,6.80
2023-04-18T01:22:03.154Z,6.70
2023-04-18T01:23:03.150Z,7.00
2023-04-18T01:24:03.147Z,6.90
2023-04-18T01:25:03.120Z,6.80
2023-04-18T01:26:03.142Z,6.90
2023-04-18T01:27:03.101Z,6.60
2023-04-18T01:28:03.081Z,6.90
2023-04-18T01:29:03.070Z,6.20
2023-04-18T01:30:03.095Z,6.20
2023-04-18T01:31:03.093Z,6.40
2023-04-18T01:32:03.041Z,7.00
2023-04-18T01:33:03.048Z,6.50
2023-04-18T01:34:03.009Z,6.30
2023-04-18T01:35:03.058Z,6.50
2023-04-18T01:36:03.000Z,6.40
2023-04-18T01:37:02.990Z,6.60
2023-04-18T01:38:02.971Z,6.00
2023-04-18T01:39:02.975Z,6.30
2023-04-18T01:40:02.964Z,6.30
2023-04-18T01:41:02.952Z,6.30
2023-04-18T01:42:02.925Z,5.80
2023-04-18T01:43:02.930Z,6.30
2023-04-18T01:44:02.933Z,6.40
2023-04-18T01:45:02.922Z,5.90
2023-04-18T01:46:02.888Z,6.40
2023-04-18T01:47:02.959Z,6.20
2023-04-18T01:48:02.912Z,6.00
2023-04-18T01:49:02.871Z,6.20
2023-04-18T01:50:02.842Z,6.20
2023-04-18T01:51:02.854Z,6.40
2023-04-18T01:52:02.819Z,6.20
2023-04-18T01:53:02.812Z,6.20
2023-04-18T01:54:02.828Z,6.60
2023-04-18T01:55:02.796Z,6.20
2023-04-18T01:56:02.773Z,6.30
2023-04-18T01:57:02.782Z,6.50
2023-04-18T01:58:02.774Z,6.40
2023-04-18T01:59:02.762Z,6.40
2023-04-18T02:00:02.802Z,6.20
2023-04-18T02:01:02.825Z,5.90
2023-04-18T02:02:02.908Z,5.90
2023-04-18T02:03:02.789Z,5.70
2023-04-18T02:04:02.729Z,5.70
2023-04-18T02:05:02.683Z,6.10
2023-04-18T02:06:02.702Z,6.00
2023-04-18T02:07:02.663Z,5.80
2023-04-18T02:08:02.646Z,5.70
2023-04-18T02:09:02.658Z,6.00
2023-04-18T02:10:02.649Z,6.20
2023-04-18T02:11:02.650Z,6.30
2023-04-18T02:12:02.618Z,5.90
2023-04-18T02:13:02.613Z,6.00
2023-04-18T02:14:02.587Z,5.90
2023-04-18T02:15:02.572Z,5.40
2023-04-18T02:16:02.620Z,6.10
2023-04-18T02:17:02.570Z,5.80
2023-04-18T02:18:02.588Z,5.50
2023-04-18T02:19:02.533Z,5.80
2023-04-18T02:20:02.552Z,5.20
2023-04-18T02:21:03.708Z,6.10
2023-04-18T02:22:02.627Z,5.90
2023-04-18T02:23:02.542Z,5.70
2023-04-18T02:24:02.520Z,5.70
2023-04-18T02:25:02.491Z,5.70
2023-04-18T02:26:02.470Z,5.80
2023-04-18T02:27:02.448Z,5.80
2023-04-18T02:28:02.433Z,5.50
2023-04-18T02:29:02.430Z,5.50
2023-04-18T02:30:02.444Z,5.80
2023-04-18T02:31:02.400Z,6.10
2023-04-18T02:32:02.478Z,5.60
2023-04-18T02:33:02.497Z,5.80
2023-04-18T02:34:02.364Z,5.20
2023-04-18T02:35:02.360Z,5.90
2023-04-18T02:36:02.347Z,5.50
2023-04-18T02:37:02.337Z,5.60
2023-04-18T02:38:02.353Z,5.80
2023-04-18T02:39:02.356Z,5.70
2023-04-18T02:40:02.302Z,6.00
2023-04-18T02:41:02.319Z,5.20
2023-04-18T02:42:02.321Z,5.40
2023-04-18T02:43:02.293Z,5.20
2023-04-18T02:44:02.270Z,5.80
2023-04-18T02:45:02.264Z,5.60
2023-04-18T02:46:02.295Z,5.10
2023-04-18T02:47:02.277Z,5.90
2023-04-18T02:48:02.301Z,5.50
2023-04-18T02:49:02.210Z,6.00
2023-04-18T02:50:02.228Z,6.20
2023-04-18T02:51:02.191Z,5.40
2023-04-18T02:52:02.261Z,5.50
2023-04-18T02:53:02.217Z,5.60
2023-04-18T02:54:02.223Z,5.60
2023-04-18T02:55:02.146Z,5.80
2023-04-18T02:56:02.147Z,6.00
2023-04-18T02:57:02.126Z,5.50
2023-04-18T02:58:02.194Z,5.70
2023-04-18T02:59:02.114Z,5.90
2023-04-18T03:00:02.134Z,5.90
2023-04-18T03:01:02.104Z,5.90
2023-04-18T03:02:02.141Z,5.10
2023-04-18T03:03:02.191Z,5.70
2023-04-18T03:04:02.088Z,5.40
2023-04-18T03:05:02.142Z,5.70
2023-04-18T03:06:02.026Z,5.50
2023-04-18T03:07:02.029Z,6.00
2023-04-18T03:08:02.136Z,5.60
2023-04-18T03:09:02.001Z,5.70
2023-04-18T03:10:02.080Z,6.50
2023-04-18T03:11:02.007Z,5.70
2023-04-18T03:12:01.964Z,5.60
2023-04-18T03:13:02.021Z,5.70
2023-04-18T03:14:01.949Z,5.90
2023-04-18T03:15:02.030Z,5.90
2023-04-18T03:16:01.999Z,6.00
2023-04-18T03:17:01.920Z,5.80
2023-04-18T03:18:02.032Z,6.10
2023-04-18T03:19:01.890Z,5.80
2023-04-18T03:20:01.898Z,5.80
2023-04-18T03:21:01.881Z,5.90
2023-04-18T03:22:02.034Z,6.30
2023-04-18T03:23:01.842Z,6.40
2023-04-18T03:24:01.827Z,6.30
2023-04-18T03:25:01.820Z,6.00
2023-04-18T03:26:01.814Z,6.20
2023-04-18T03:27:01.792Z,6.40
2023-04-18T03:28:01.843Z,6.20
2023-04-18T03:29:01.776Z,6.20
2023-04-18T03:30:01.814Z,6.20
2023-04-18T03:31:01.778Z,5.90
2023-04-18T03:32:01.756Z,6.20
2023-04-18T03:33:01.806Z,6.20
2023-04-18T03:34:01.816Z,6.10
2023-04-18T03:35:01.712Z,5.90
2023-04-18T03:36:01.762Z,6.40
2023-04-18T03:37:01.691Z,6.80
2023-04-18T03:38:01.733Z,6.30
2023-04-18T03:39:01.685Z,6.30
2023-04-18T03:40:01.667Z,6.30
2023-04-18T03:41:02.098Z,6.00
2023-04-18T03:42:01.628Z,7.40
2023-04-18T03:43:01.628Z,6.40
2023-04-18T03:44:01.622Z,6.70
2023-04-18T03:45:01.609Z,6.50
2023-04-18T03:46:01.674Z,6.40
2023-04-18T03:47:01.615Z,6.20
2023-04-18T03:48:01.682Z,6.30
2023-04-18T03:49:01.591Z,6.80
2023-04-18T03:50:01.571Z,7.00
2023-04-18T03:51:01.534Z,6.00
2023-04-18T03:52:01.527Z,6.00
2023-04-18T03:53:03.230Z,6.30
2023-04-18T03:54:01.516Z,6.70
2023-04-18T03:55:01.576Z,7.00
2023-04-18T03:56:01.478Z,6.80
2023-04-18T03:57:01.512Z,6.50
2023-04-18T03:58:01.547Z,6.20
2023-04-18T03:59:01.460Z,6.60
2023-04-18T04:00:03.163Z,6.70
2023-04-18T04:01:01.473Z,6.20
2023-04-18T04:02:01.526Z,6.50
2023-04-18T04:03:01.668Z,6.20
2023-04-18T04:04:01.623Z,6.00
2023-04-18T04:05:01.423Z,6.20
2023-04-18T04:06:01.462Z,6.50
2023-04-18T04:07:01.371Z,6.30
2023-04-18T04:08:01.358Z,6.90
2023-04-18T04:09:01.378Z,7.10
2023-04-18T04:10:01.442Z,6.80
2023-04-18T04:11:01.322Z,6.70
2023-04-18T04:12:01.344Z,6.30
2023-04-18T04:13:05.024Z,6.30
2023-04-18T04:14:01.331Z,6.40
2023-04-18T04:15:01.288Z,7.20
2023-04-18T04:16:01.369Z,6.50
2023-04-18T04:17:01.268Z,6.70
2023-04-18T04:18:01.369Z,6.90
2023-04-18T04:19:01.245Z,7.50
2023-04-18T04:20:01.440Z,7.00
2023-04-18T04:21:01.243Z,7.00
2023-04-18T04:22:01.208Z,6.80
2023-04-18T04:23:01.305Z,6.80
2023-04-18T04:24:01.194Z,7.40
2023-04-18T04:25:01.201Z,7.00
2023-04-18T04:26:01.210Z,9.20
2023-04-18T04:27:01.221Z,16.00
2023-04-18T04:28:01.140Z,18.90
2023-04-18T04:29:01.174Z,14.20
2023-04-18T04:30:01.114Z,11.50
2023-04-18T04:31:01.110Z,8.90
2023-04-18T04:32:01.213Z,8.30
2023-04-18T04:33:02.950Z,8.50
2023-04-18T04:34:01.073Z,8.80
2023-04-18T04:35:01.063Z,13.00
2023-04-18T04:36:01.052Z,10.10
2023-04-18T04:37:01.060Z,11.60
2023-04-18T04:38:01.035Z,10.90
2023-04-18T04:39:01.050Z,9.20
2023-04-18T04:40:01.032Z,10.10
2023-04-18T04:41:01.028Z,11.10
2023-04-18T04:42:01.010Z,9.20
2023-04-18T04:43:00.976Z,12.00
2023-04-18T04:44:00.964Z,11.80
2023-04-18T04:45:00.992Z,8.80
2023-04-18T04:46:01.164Z,8.90
2023-04-18T04:47:00.958Z,10.20
2023-04-18T04:48:00.954Z,11.00
2023-04-18T04:49:00.960Z,10.70
2023-04-18T04:50:00.907Z,10.20
2023-04-18T04:51:00.937Z,9.10
2023-04-18T04:52:01.989Z,9.60
2023-04-18T04:53:00.883Z,8.20
2023-04-18T04:54:00.911Z,8.30
2023-04-18T04:55:00.843Z,8.10
2023-04-18T04:56:00.888Z,8.00
2023-04-18T04:57:00.824Z,7.50
2023-04-18T04:58:00.813Z,8.30
2023-04-18T04:59:00.816Z,10.90
2023-04-18T05:00:00.860Z,9.50
2023-04-18T05:01:00.849Z,7.60
2023-04-18T05:02:00.802Z,8.10
2023-04-18T05:03:00.856Z,7.70
2023-04-18T05:04:00.947Z,9.60
2023-04-18T05:05:00.733Z,12.10
2023-04-18T05:06:00.736Z,8.50
2023-04-18T05:07:00.711Z,8.70
2023-04-18T05:08:00.751Z,8.00
2023-04-18T05:09:00.701Z,8.10
2023-04-18T05:10:00.731Z,7.80
2023-04-18T05:11:00.665Z,7.50
2023-04-18T05:12:00.663Z,7.40
2023-04-18T05:13:00.639Z,8.50
2023-04-18T05:14:00.641Z,7.60
2023-04-18T05:15:00.620Z,7.60
2023-04-18T05:16:00.703Z,7.90
2023-04-18T05:17:00.640Z,7.50
2023-04-18T05:18:00.648Z,7.90
2023-04-18T05:19:00.579Z,7.10
2023-04-18T05:20:00.579Z,8.70
2023-04-18T05:21:00.553Z,8.50
2023-04-18T05:22:00.582Z,8.20
2023-04-18T05:23:00.539Z,9.00
2023-04-18T05:24:00.564Z,8.30
2023-04-18T05:25:00.522Z,8.00
2023-04-18T05:26:00.520Z,7.50
2023-04-18T05:27:05.396Z,8.10
2023-04-18T05:28:00.488Z,7.40
2023-04-18T05:29:00.470Z,9.10
2023-04-18T05:30:00.463Z,10.10
2023-04-18T05:31:00.493Z,8.50
2023-04-18T05:32:00.444Z,8.00
2023-04-18T05:33:00.563Z,7.90
2023-04-18T05:34:00.434Z,8.30
2023-04-18T05:35:00.427Z,8.80
2023-04-18T05:36:00.417Z,8.40
2023-04-18T05:37:00.508Z,8.60
2023-04-18T05:38:00.404Z,8.10
2023-04-18T05:39:00.375Z,8.30
2023-04-18T05:40:01.046Z,8.10
2023-04-18T05:41:00.434Z,8.70
2023-04-18T05:42:00.338Z,8.80
2023-04-18T05:43:00.354Z,11.30
2023-04-18T05:44:16.815Z,11.50
2023-04-18T05:45:15.257Z,12.60
2023-04-18T05:46:00.375Z,18.60
2023-04-18T05:47:00.313Z,11.20
2023-04-18T05:48:00.295Z,10.00
2023-04-18T05:49:00.264Z,14.60
2023-04-18T05:50:00.351Z,9.40
2023-04-18T05:51:00.239Z,9.80
2023-04-18T05:52:00.267Z,7.90
2023-04-18T05:53:00.220Z,8.60
2023-04-18T05:54:00.214Z,8.50
2023-04-18T05:55:00.199Z,10.30
2023-04-18T05:56:00.207Z,10.30
2023-04-18T05:57:00.920Z,14.90
2023-04-18T05:58:01.875Z,11.60
2023-04-18T05:59:00.154Z,10.10
2023-04-18T06:00:00.250Z,8.70
2023-04-18T06:01:00.131Z,10.00
2023-04-18T06:02:00.291Z,9.70
2023-04-18T06:03:00.430Z,7.60
2023-04-18T06:04:00.246Z,8.10
2023-04-18T06:05:00.369Z,8.60
2023-04-18T06:06:00.235Z,9.60
2023-04-18T06:07:00.063Z,7.60
2023-04-18T06:08:00.118Z,8.00
2023-04-18T06:09:01.762Z,9.00
2023-04-18T06:10:00.058Z,9.60
2023-04-18T06:11:00.057Z,9.80
2023-04-18T06:12:00.021Z,9.00
2023-04-18T06:12:59.993Z,9.60
2023-04-18T06:14:00.037Z,8.60
2023-04-18T06:14:59.982Z,9.70
2023-04-18T06:16:00.017Z,9.60
2023-04-18T06:16:59.956Z,8.50
2023-04-18T06:18:00.033Z,8.50
2023-04-18T06:19:01.420Z,8.40
2023-04-18T06:19:59.941Z,8.50
2023-04-18T06:21:01.650Z,9.70
2023-04-18T06:21:59.921Z,9.00
2023-04-18T06:22:59.898Z,8.30
2023-04-18T06:23:59.881Z,8.80
2023-04-18T06:25:01.415Z,9.20
2023-04-18T06:25:59.877Z,9.10
2023-04-18T06:27:00.484Z,8.40
2023-04-18T06:27:59.840Z,8.40
2023-04-18T06:28:59.858Z,8.90
2023-04-18T06:30:01.576Z,9.00
2023-04-18T06:30:59.808Z,8.90
2023-04-18T06:31:59.831Z,8.30
2023-04-18T06:32:59.891Z,8.30
2023-04-18T06:33:59.783Z,7.90
2023-04-18T06:34:59.787Z,9.00
2023-04-18T06:36:01.505Z,8.90
2023-04-18T06:36:59.740Z,8.60
2023-04-18T06:37:59.732Z,9.10
2023-04-18T06:38:59.736Z,8.70
2023-04-18T06:39:59.711Z,7.50
2023-04-18T06:40:59.799Z,8.60
2023-04-18T06:41:59.719Z,8.60
2023-04-18T06:42:59.703Z,9.70
2023-04-18T06:44:14.659Z,8.50
2023-04-18T06:45:00.681Z,9.40
2023-04-18T06:45:59.704Z,9.20
2023-04-18T06:46:59.639Z,9.00
2023-04-18T06:47:59.687Z,9.00
2023-04-18T06:48:59.608Z,9.00
2023-04-18T06:49:59.671Z,8.80
2023-04-18T06:50:59.614Z,9.20
2023-04-18T06:51:59.611Z,9.00
2023-04-18T06:52:59.581Z,9.00
2023-04-18T06:53:59.575Z,8.80
2023-04-18T06:54:59.549Z,8.90
2023-04-18T06:55:59.546Z,9.40
2023-04-18T06:56:59.518Z,9.30
2023-04-18T06:57:59.554Z,9.20
2023-04-18T06:58:59.503Z,9.30
2023-04-18T06:59:59.532Z,9.20
2023-04-18T07:00:59.516Z,8.80
2023-04-18T07:01:59.551Z,9.30
2023-04-18T07:02:59.670Z,9.50
2023-04-18T07:03:59.508Z,9.20
2023-04-18T07:04:59.450Z,9.70
2023-04-18T07:05:59.438Z,9.70
2023-04-18T07:06:59.413Z,9.80
2023-04-18T07:07:59.412Z,10.00
2023-04-18T07:08:59.458Z,9.50
2023-04-18T07:09:59.388Z,9.90
2023-04-18T07:10:59.612Z,9.40
2023-04-18T07:11:59.385Z,10.10
2023-04-18T07:12:59.379Z,10.10
2023-04-18T07:13:59.374Z,9.40
2023-04-18T07:14:59.334Z,10.00
2023-04-18T07:15:59.395Z,10.50
2023-04-18T07:16:59.402Z,11.70
2023-04-18T07:17:59.329Z,14.10
2023-04-18T07:18:59.321Z,11.20
2023-04-18T07:20:02.557Z,13.00
2023-04-18T07:20:59.265Z,14.70
2023-04-18T07:21:59.253Z,14.90
2023-04-18T07:22:59.241Z,14.20
2023-04-18T07:23:59.234Z,13.20
2023-04-18T07:24:59.240Z,13.10
2023-04-18T07:25:59.272Z,11.60
2023-04-18T07:26:59.208Z,11.10
2023-04-18T07:27:59.195Z,12.50
2023-04-18T07:28:59.190Z,12.70
2023-04-18T07:29:59.217Z,11.70
2023-04-18T07:30:59.194Z,17.70
2023-04-18T07:31:59.152Z,15.30
2023-04-18T07:32:59.195Z,11.80
2023-04-18T07:33:59.121Z,10.70
2023-04-18T07:35:00.835Z,13.60
2023-04-18T07:35:59.159Z,12.30
2023-04-18T07:36:59.143Z,14.00
2023-04-18T07:37:59.083Z,13.50
2023-04-18T07:38:59.074Z,14.40
2023-04-18T07:39:59.063Z,12.80
2023-04-18T07:40:59.088Z,12.60
2023-04-18T07:41:59.043Z,11.70
2023-04-18T07:42:59.033Z,12.10
2023-04-18T07:43:59.059Z,11.70
2023-04-18T07:44:59.024Z,12.00
2023-04-18T07:45:59.088Z,12.50
2023-04-18T07:46:59.007Z,11.60
2023-04-18T07:47:59.066Z,12.00
2023-04-18T07:48:58.997Z,12.10
2023-04-18T07:49:58.956Z,13.60
2023-04-18T07:50:58.938Z,12.40
2023-04-18T07:51:58.934Z,11.50
2023-04-18T07:52:58.933Z,14.00
2023-04-18T07:53:58.963Z,13.20
2023-04-18T07:54:58.897Z,12.60
2023-04-18T07:55:58.907Z,11.50
2023-04-18T07:56:58.878Z,11.70
2023-04-18T07:57:58.870Z,12.90
2023-04-18T07:58:58.860Z,12.40
2023-04-18T07:59:58.881Z,11.40
2023-04-18T08:00:58.869Z,12.00
2023-04-18T08:01:58.901Z,12.00
2023-04-18T08:02:58.916Z,11.60
2023-04-18T08:03:58.894Z,10.90
2023-04-18T08:04:58.919Z,11.00
2023-04-18T08:05:58.846Z,10.50
2023-04-18T08:07:01.497Z,10.90
2023-04-18T08:07:58.799Z,11.00
2023-04-18T08:08:58.790Z,11.00
2023-04-18T08:09:58.734Z,10.30
2023-04-18T08:10:58.733Z,10.30
2023-04-18T08:11:58.725Z,9.80
2023-04-18T08:12:58.702Z,10.00
2023-04-18T08:13:58.723Z,10.30
2023-04-18T08:14:58.716Z,11.00
2023-04-18T08:15:58.721Z,10.30
2023-04-18T08:16:58.657Z,9.90
2023-04-18T08:17:58.695Z,11.10
2023-04-18T08:18:58.637Z,10.60
2023-04-18T08:19:58.651Z,10.10
2023-04-18T08:20:58.656Z,10.30
2023-04-18T08:21:58.609Z,10.30
2023-04-18T08:23:07.592Z,9.60
2023-04-18T08:23:59.587Z,9.60
2023-04-18T08:25:05.002Z,10.20
2023-04-18T08:25:59.608Z,10.30
2023-04-18T08:26:58.555Z,11.30
2023-04-18T08:27:58.627Z,9.80
2023-04-18T08:28:58.546Z,10.20
2023-04-18T08:29:58.563Z,10.90
2023-04-18T08:30:58.518Z,10.20
2023-04-18T08:31:58.534Z,10.10
2023-04-18T08:32:58.530Z,9.80
2023-04-18T08:33:58.476Z,9.60
2023-04-18T08:34:58.529Z,9.60
2023-04-18T08:35:58.466Z,10.20
2023-04-18T08:36:58.503Z,9.60
2023-04-18T08:37:58.435Z,9.10
2023-04-18T08:38:58.455Z,10.00
2023-04-18T08:39:58.417Z,9.90
2023-04-18T08:40:58.399Z,9.70
2023-04-18T08:41:58.391Z,9.80
2023-04-18T08:42:58.388Z,10.00
2023-04-18T08:43:58.382Z,10.00
2023-04-18T08:44:58.397Z,9.60
2023-04-18T08:45:58.473Z,10.50
2023-04-18T08:46:58.329Z,10.50
2023-04-18T08:47:58.369Z,9.70
2023-04-18T08:48:58.351Z,10.20
2023-04-18T08:49:58.358Z,10.30
2023-04-18T08:50:58.287Z,10.70
2023-04-18T08:51:58.282Z,11.30
2023-04-18T08:52:58.263Z,10.70
2023-04-18T08:53:58.830Z,13.40
2023-04-18T08:54:58.276Z,10.30
2023-04-18T08:55:58.248Z,10.20
2023-04-18T08:56:58.227Z,10.90
2023-04-18T08:57:58.241Z,11.10
2023-04-18T08:58:58.213Z,11.10
2023-04-18T08:59:58.247Z,10.70
2023-04-18T09:00:58.200Z,10.90
2023-04-18T09:01:58.186Z,11.20
2023-04-18T09:02:58.254Z,11.70
2023-04-18T09:03:58.292Z,11.10
2023-04-18T09:04:58.218Z,11.10
2023-04-18T09:05:58.153Z,11.60
2023-04-18T09:06:58.123Z,11.30
2023-04-18T09:07:58.115Z,10.90
2023-04-18T09:08:58.104Z,11.20
2023-04-18T09:09:58.094Z,11.20
2023-04-18T09:10:58.119Z,11.30
2023-04-18T09:11:58.065Z,11.70
2023-04-18T09:12:58.052Z,11.40
2023-04-18T09:13:58.030Z,10.90
2023-04-18T09:14:58.055Z,11.30
2023-04-18T09:15:58.017Z,12.20
2023-04-18T09:16:58.802Z,12.50
2023-04-18T09:17:58.180Z,12.00
2023-04-18T09:18:58.029Z,11.60
2023-04-18T09:19:58.065Z,12.50
2023-04-18T09:20:57.971Z,12.80
2023-04-18T09:21:57.948Z,13.00
2023-04-18T09:22:57.998Z,12.00
2023-04-18T09:23:57.960Z,12.20
2023-04-18T09:24:57.930Z,12.50
2023-04-18T09:25:57.922Z,12.60
2023-04-18T09:26:57.895Z,12.20
2023-04-18T09:27:57.886Z,11.90
2023-04-18T09:28:57.885Z,12.70
2023-04-18T09:29:58.152Z,12.80
2023-04-18T09:30:57.916Z,14.00
2023-04-18T09:31:57.934Z,18.80
2023-04-18T09:32:58.145Z,19.20
2023-04-18T09:33:57.822Z,16.10
2023-04-18T09:34:57.857Z,18.40
2023-04-18T09:35:57.808Z,24.90
2023-04-18T09:36:57.886Z,16.60
2023-04-18T09:37:57.775Z,22.80
2023-04-18T09:38:59.500Z,22.00
2023-04-18T09:39:57.758Z,22.00
2023-04-18T09:40:57.752Z,22.20
2023-04-18T09:41:57.780Z,20.80
2023-04-18T09:42:57.738Z,18.80
2023-04-18T09:43:58.697Z,14.60
2023-04-18T09:44:57.721Z,19.10
2023-04-18T09:45:57.787Z,17.10
2023-04-18T09:46:57.690Z,26.20
2023-04-18T09:48:00.967Z,26.10
2023-04-18T09:48:57.666Z,15.80
2023-04-18T09:49:57.649Z,18.00
2023-04-18T09:50:57.649Z,13.80
2023-04-18T09:51:57.658Z,19.40
2023-04-18T09:52:57.667Z,27.20
2023-04-18T09:53:57.636Z,31.10
2023-04-18T09:54:57.634Z,23.40
2023-04-18T09:55:57.931Z,25.30
2023-04-18T09:56:57.622Z,14.50
2023-04-18T09:57:57.564Z,14.20
2023-04-18T09:58:57.553Z,40.40
2023-04-18T09:59:57.535Z,19.40
2023-04-18T10:00:57.545Z,16.50
2023-04-18T10:01:57.616Z,17.80
2023-04-18T10:03:00.818Z,19.40
2023-04-18T10:03:57.672Z,17.10
2023-04-18T10:04:57.611Z,19.90
2023-04-18T10:05:58.007Z,17.10
2023-04-18T10:06:57.463Z,16.40
2023-04-18T10:07:57.457Z,12.80
2023-04-18T10:08:57.498Z,14.10
2023-04-18T10:09:57.480Z,14.60
2023-04-18T10:10:57.425Z,14.40
2023-04-18T10:11:57.429Z,14.60
2023-04-18T10:12:57.407Z,13.90
2023-04-18T10:13:57.375Z,14.30
2023-04-18T10:14:57.399Z,14.80
2023-04-18T10:15:57.516Z,16.40
2023-04-18T10:16:57.367Z,14.40
2023-04-18T10:18:57.352Z,16.50
2023-04-18T10:19:57.332Z,14.00
2023-04-18T10:20:57.321Z,16.80
2023-04-18T10:21:57.351Z,17.90
2023-04-18T10:22:57.301Z,15.00
2023-04-18T10:23:57.287Z,31.20
2023-04-18T10:24:57.290Z,26.30
2023-04-18T10:25:57.288Z,24.20
2023-04-18T10:26:57.251Z,27.10
2023-04-18T10:27:57.311Z,12.80
2023-04-18T10:28:57.432Z,16.80
2023-04-18T10:29:57.218Z,22.40
2023-04-18T10:30:57.336Z,16.10
2023-04-18T10:31:57.373Z,12.90
2023-04-18T10:32:57.213Z,14.10
2023-04-18T10:34:57.182Z,12.60
2023-04-18T10:35:57.161Z,13.60
2023-04-18T10:36:57.144Z,12.00
2023-04-18T10:37:57.139Z,13.70
2023-04-18T10:38:57.154Z,12.00
2023-04-18T10:39:57.138Z,12.00
2023-04-18T10:40:57.117Z,11.80
2023-04-18T10:41:57.078Z,13.10
2023-04-18T10:42:57.090Z,13.40
2023-04-18T10:43:57.189Z,11.40
2023-04-18T10:44:57.078Z,12.70
2023-04-18T10:45:57.080Z,12.40
2023-04-18T10:46:57.069Z,12.60
2023-04-18T10:47:57.064Z,12.20
2023-04-18T10:48:57.024Z,12.70
2023-04-18T10:49:57.098Z,13.50
2023-04-18T10:50:57.015Z,12.90
2023-04-18T10:51:56.973Z,12.90
2023-04-18T10:52:57.019Z,13.70
2023-04-18T10:53:56.956Z,12.60
2023-04-18T10:54:58.876Z,13.60
2023-04-18T10:55:56.937Z,13.50
2023-04-18T10:56:56.932Z,13.00
2023-04-18T10:57:57.190Z,13.20
2023-04-18T10:58:56.943Z,12.80
2023-04-18T10:59:56.934Z,12.80
2023-04-18T11:00:56.932Z,13.10
2023-04-18T11:01:56.901Z,13.70
2023-04-18T11:02:57.028Z,13.20
2023-04-18T11:03:56.934Z,12.60
2023-04-18T11:04:56.922Z,13.30
2023-04-18T11:05:56.967Z,13.40
2023-04-18T11:06:56.843Z,13.10
2023-04-18T11:07:56.806Z,13.90
2023-04-18T11:08:56.833Z,13.60
2023-04-18T11:09:56.814Z,13.50
2023-04-18T11:10:56.817Z,13.20
2023-04-18T11:11:56.762Z,13.40
2023-04-18T11:12:56.800Z,13.30
2023-04-18T11:13:56.740Z,13.50
2023-04-18T11:14:56.733Z,12.90
2023-04-18T11:15:56.726Z,12.90
2023-04-18T11:17:00.211Z,13.30
2023-04-18T11:17:56.790Z,13.60
2023-04-18T11:18:56.696Z,14.70
2023-04-18T11:19:56.742Z,14.20
2023-04-18T11:20:56.671Z,12.80
2023-04-18T11:21:56.656Z,13.60
2023-04-18T11:22:56.647Z,13.70
2023-04-18T11:23:56.694Z,13.90
2023-04-18T11:24:56.624Z,13.80
2023-04-18T11:25:56.704Z,13.50
2023-04-18T11:26:56.608Z,14.90
2023-04-18T11:27:56.591Z,15.00
2023-04-18T11:28:56.587Z,16.50
2023-04-18T11:29:56.686Z,17.80
2023-04-18T11:30:56.605Z,18.20
2023-04-18T11:31:58.469Z,21.00
2023-04-18T11:32:56.669Z,19.90
2023-04-18T11:33:56.578Z,15.20
2023-04-18T11:34:56.616Z,14.10
2023-04-18T11:35:56.536Z,15.90
2023-04-18T11:36:56.497Z,16.40
2023-04-18T11:37:56.538Z,19.00
2023-04-18T11:38:56.473Z,15.50
2023-04-18T11:39:56.461Z,15.80
2023-04-18T11:40:56.484Z,18.20
2023-04-18T11:41:56.444Z,14.20
2023-04-18T11:42:56.425Z,15.50
2023-04-18T11:43:56.423Z,15.50
2023-04-18T11:44:56.409Z,17.00
2023-04-18T11:45:56.581Z,16.10
2023-04-18T11:46:56.380Z,17.20
2023-04-18T11:47:56.448Z,17.10
2023-04-18T11:48:56.407Z,17.40
2023-04-18T11:49:57.194Z,17.30
2023-04-18T11:50:56.330Z,15.90
2023-04-18T11:51:56.360Z,15.60
2023-04-18T11:52:56.339Z,14.20
2023-04-18T11:53:56.312Z,14.60
2023-04-18T11:54:56.302Z,14.80
2023-04-18T11:55:56.301Z,16.80
2023-04-18T11:56:56.301Z,16.30
2023-04-18T11:57:56.312Z,15.30
2023-04-18T11:58:56.251Z,17.60
2023-04-18T11:59:56.279Z,14.90
2023-04-18T12:00:56.281Z,14.10
2023-04-18T12:01:58.762Z,14.00
2023-04-18T12:02:56.387Z,14.50
2023-04-18T12:03:56.422Z,14.50
2023-04-18T12:04:56.776Z,16.10
2023-04-18T12:05:56.288Z,16.40
2023-04-18T12:06:56.205Z,16.90
2023-04-18T12:07:56.182Z,16.50
2023-04-18T12:08:56.147Z,16.50
2023-04-18T12:09:56.129Z,14.80
2023-04-18T12:10:56.134Z,15.00
2023-04-18T12:11:56.184Z,14.40
2023-04-18T12:12:56.106Z,15.70
2023-04-18T12:13:56.170Z,15.90
2023-04-18T12:14:56.090Z,14.90
2023-04-18T12:15:56.091Z,14.90
2023-04-18T12:16:56.069Z,15.90
2023-04-18T12:17:57.808Z,15.60
2023-04-18T12:18:56.053Z,15.00
2023-04-18T12:19:56.070Z,16.40
2023-04-18T12:20:56.009Z,16.70
2023-04-18T12:21:56.002Z,14.90
2023-04-18T12:22:56.010Z,14.40
2023-04-18T12:23:56.026Z,15.30
2023-04-18T12:24:55.969Z,15.30
2023-04-18T12:25:55.988Z,15.40
2023-04-18T12:26:55.971Z,16.00
2023-04-18T12:27:55.925Z,16.00
2023-04-18T12:28:55.981Z,14.50
2023-04-18T12:29:55.936Z,15.40
2023-04-18T12:30:55.905Z,16.20
2023-04-18T12:31:55.944Z,16.50
2023-04-18T12:32:55.965Z,14.40
2023-04-18T12:33:56.003Z,14.30
2023-04-18T12:34:55.854Z,15.20
2023-04-18T12:35:55.837Z,13.60
2023-04-18T12:36:55.836Z,14.90
2023-04-18T12:37:55.865Z,14.40
2023-04-18T12:38:55.818Z,14.20
2023-04-18T12:39:55.872Z,14.50
2023-04-18T12:40:55.811Z,13.90
2023-04-18T12:41:55.807Z,14.20
2023-04-18T12:42:55.764Z,13.20
2023-04-18T12:43:55.755Z,14.80
2023-04-18T12:44:55.751Z,13.40
2023-04-18T12:45:55.820Z,14.30
2023-04-18T12:46:55.760Z,13.70
2023-04-18T12:47:55.734Z,14.30
2023-04-18T12:48:55.697Z,14.40
2023-04-18T12:49:55.694Z,14.10
2023-04-18T12:50:55.724Z,13.40
2023-04-18T12:51:55.675Z,14.40
2023-04-18T12:52:55.672Z,13.90
2023-04-18T12:53:55.689Z,14.30
2023-04-18T12:54:55.636Z,14.40
2023-04-18T12:55:55.660Z,14.40
2023-04-18T12:56:55.695Z,14.00
2023-04-18T12:57:55.614Z,13.60
2023-04-18T12:58:55.645Z,13.40
2023-04-18T12:59:55.576Z,14.70
2023-04-18T13:00:55.597Z,13.80
2023-04-18T13:01:55.651Z,13.40
2023-04-18T13:02:55.728Z,14.70
2023-04-18T13:04:08.453Z,14.70
2023-04-18T13:04:56.603Z,13.90
2023-04-18T13:05:55.584Z,14.80
2023-04-18T13:06:55.514Z,13.80
2023-04-18T13:08:08.457Z,14.30